sensor_id;sensor_type;location;lat;lon;timestamp;temperature;humidity
44461;DHT22;30162;53.642;10.640;2022-12-15T00:00:09;-4.40;82.40
44461;DHT22;30162;53.642;10.640;2022-12-15T00:02:53;-4.40;82.80
44461;DHT22;30162;53.642;10.640;2022-12-15T00:05:37;-4.50;82.00
44461;DHT22;30162;53.642;10.640;2022-12-15T00:08:20;-4.50;82.20
44461;DHT22;30162;53.642;10.640;2022-12-15T00:11:04;-4.70;82.20
44461;DHT22;30162;53.642;10.640;2022-12-15T00:13:49;-4.70;82.50
44461;DHT22;30162;53.642;10.640;2022-12-15T00:16:32;-4.60;83.40
44461;DHT22;30162;53.642;10.640;2022-12-15T00:19:17;-4.70;85.40
44461;DHT22;30162;53.642;10.640;2022-12-15T00:22:00;-4.50;84.50
44461;DHT22;30162;53.642;10.640;2022-12-15T00:24:45;-4.40;84.60
44461;DHT22;30162;53.642;10.640;2022-12-15T00:27:28;-4.60;86.10
44461;DHT22;30162;53.642;10.640;2022-12-15T00:30:13;-4.30;85.40
44461;DHT22;30162;53.642;10.640;2022-12-15T00:32:56;-4.40;85.20
44461;DHT22;30162;53.642;10.640;2022-12-15T00:35:40;-4.30;84.50
44461;DHT22;30162;53.642;10.640;2022-12-15T00:38:24;-4.20;83.90
44461;DHT22;30162;53.642;10.640;2022-12-15T00:41:10;-4.30;84.20
44461;DHT22;30162;53.642;10.640;2022-12-15T00:43:36;-4.10;83.30
44461;DHT22;30162;53.642;10.640;2022-12-15T00:46:02;-4.20;82.60
44461;DHT22;30162;53.642;10.640;2022-12-15T00:48:46;-4.10;82.50
44461;DHT22;30162;53.642;10.640;2022-12-15T00:51:13;-4.20;82.30
44461;DHT22;30162;53.642;10.640;2022-12-15T00:53:39;-4.30;82.40
44461;DHT22;30162;53.642;10.640;2022-12-15T00:56:23;-4.30;82.50
44461;DHT22;30162;53.642;10.640;2022-12-15T00:59:07;-4.20;82.80
44461;DHT22;30162;53.642;10.640;2022-12-15T01:01:52;-4.10;82.90
44461;DHT22;30162;53.642;10.640;2022-12-15T01:04:36;-4.20;84.20
44461;DHT22;30162;53.642;10.640;2022-12-15T01:07:20;-4.00;84.00
44461;DHT22;30162;53.642;10.640;2022-12-15T01:10:04;-3.80;83.20
44461;DHT22;30162;53.642;10.640;2022-12-15T01:12:48;-3.60;83.30
44461;DHT22;30162;53.642;10.640;2022-12-15T01:15:35;-3.90;83.10
44461;DHT22;30162;53.642;10.640;2022-12-15T01:18:20;-3.90;84.20
44461;DHT22;30162;53.642;10.640;2022-12-15T01:21:05;-3.80;84.00
44461;DHT22;30162;53.642;10.640;2022-12-15T01:23:33;-3.80;83.40
44461;DHT22;30162;53.642;10.640;2022-12-15T01:25:59;-3.80;83.70
44461;DHT22;30162;53.642;10.640;2022-12-15T01:28:25;-3.80;83.90
44461;DHT22;30162;53.642;10.640;2022-12-15T01:30:50;-3.80;84.00
44461;DHT22;30162;53.642;10.640;2022-12-15T01:33:17;-3.70;84.00
44461;DHT22;30162;53.642;10.640;2022-12-15T01:35:42;-3.60;83.30
44461;DHT22;30162;53.642;10.640;2022-12-15T01:38:09;-3.60;83.30
44461;DHT22;30162;53.642;10.640;2022-12-15T01:40:35;-3.60;82.80
44461;DHT22;30162;53.642;10.640;2022-12-15T01:43:17;-3.50;83.00
44461;DHT22;30162;53.642;10.640;2022-12-15T01:45:50;-3.50;83.00
44461;DHT22;30162;53.642;10.640;2022-12-15T01:48:39;-3.30;82.30
44461;DHT22;30162;53.642;10.640;2022-12-15T01:51:25;-3.70;82.20
44461;DHT22;30162;53.642;10.640;2022-12-15T01:56:26;-3.70;83.60
44461;DHT22;30162;53.642;10.640;2022-12-15T01:58:55;-3.50;83.50
44461;DHT22;30162;53.642;10.640;2022-12-15T02:01:24;-3.40;83.50
44461;DHT22;30162;53.642;10.640;2022-12-15T02:03:50;-3.50;82.90
44461;DHT22;30162;53.642;10.640;2022-12-15T02:06:16;-3.70;83.90
44461;DHT22;30162;53.642;10.640;2022-12-15T02:08:47;-3.60;83.80
44461;DHT22;30162;53.642;10.640;2022-12-15T02:14:06;-3.70;84.80
44461;DHT22;30162;53.642;10.640;2022-12-15T02:24:52;-3.20;82.60
44461;DHT22;30162;53.642;10.640;2022-12-15T02:32:53;-3.50;82.90
44461;DHT22;30162;53.642;10.640;2022-12-15T02:35:29;-3.40;83.10
44461;DHT22;30162;53.642;10.640;2022-12-15T02:37:56;-3.60;82.80
44461;DHT22;30162;53.642;10.640;2022-12-15T02:40:22;-3.60;83.00
44461;DHT22;30162;53.642;10.640;2022-12-15T02:42:51;-3.50;83.50
44461;DHT22;30162;53.642;10.640;2022-12-15T02:46:08;-3.50;82.40
44461;DHT22;30162;53.642;10.640;2022-12-15T02:48:26;-3.70;82.90
44461;DHT22;30162;53.642;10.640;2022-12-15T02:51:24;-3.70;83.00
44461;DHT22;30162;53.642;10.640;2022-12-15T02:54:22;-3.80;82.00
44461;DHT22;30162;53.642;10.640;2022-12-15T02:56:59;-4.00;82.70
44461;DHT22;30162;53.642;10.640;2022-12-15T02:59:41;-3.90;83.10
44461;DHT22;30162;53.642;10.640;2022-12-15T03:02:08;-3.70;82.10
44461;DHT22;30162;53.642;10.640;2022-12-15T03:04:35;-3.80;82.20
44461;DHT22;30162;53.642;10.640;2022-12-15T03:07:04;-3.80;82.50
44461;DHT22;30162;53.642;10.640;2022-12-15T03:09:30;-3.80;82.00
44461;DHT22;30162;53.642;10.640;2022-12-15T03:11:56;-3.80;82.00
44461;DHT22;30162;53.642;10.640;2022-12-15T03:14:22;-3.80;82.10
44461;DHT22;30162;53.642;10.640;2022-12-15T03:16:50;-4.10;82.40
44461;DHT22;30162;53.642;10.640;2022-12-15T03:19:15;-4.10;83.00
44461;DHT22;30162;53.642;10.640;2022-12-15T03:21:41;-4.40;83.10
44461;DHT22;30162;53.642;10.640;2022-12-15T03:24:07;-4.20;83.60
44461;DHT22;30162;53.642;10.640;2022-12-15T03:26:32;-4.10;83.20
44461;DHT22;30162;53.642;10.640;2022-12-15T03:28:58;-4.00;83.30
44461;DHT22;30162;53.642;10.640;2022-12-15T03:31:23;-3.90;83.20
44461;DHT22;30162;53.642;10.640;2022-12-15T03:33:49;-3.80;82.30
44461;DHT22;30162;53.642;10.640;2022-12-15T03:36:14;-3.70;82.30
44461;DHT22;30162;53.642;10.640;2022-12-15T03:38:40;-3.80;82.80
44461;DHT22;30162;53.642;10.640;2022-12-15T03:41:05;-4.00;82.80
44461;DHT22;30162;53.642;10.640;2022-12-15T03:43:31;-4.10;82.80
44461;DHT22;30162;53.642;10.640;2022-12-15T03:45:56;-4.20;82.60
44461;DHT22;30162;53.642;10.640;2022-12-15T03:48:22;-4.30;82.90
44461;DHT22;30162;53.642;10.640;2022-12-15T03:50:47;-4.40;82.60
44461;DHT22;30162;53.642;10.640;2022-12-15T03:53:14;-4.50;83.10
44461;DHT22;30162;53.642;10.640;2022-12-15T03:55:39;-4.30;83.10
44461;DHT22;30162;53.642;10.640;2022-12-15T03:58:05;-4.10;82.90
44461;DHT22;30162;53.642;10.640;2022-12-15T04:00:30;-4.20;82.20
44461;DHT22;30162;53.642;10.640;2022-12-15T04:02:56;-4.10;82.00
44461;DHT22;30162;53.642;10.640;2022-12-15T04:05:33;-4.10;81.90
44461;DHT22;30162;53.642;10.640;2022-12-15T04:07:59;-4.10;81.80
44461;DHT22;30162;53.642;10.640;2022-12-15T04:10:27;-4.10;81.70
44461;DHT22;30162;53.642;10.640;2022-12-15T04:13:00;-4.20;82.40
44461;DHT22;30162;53.642;10.640;2022-12-15T04:15:27;-4.30;82.60
44461;DHT22;30162;53.642;10.640;2022-12-15T04:17:52;-4.10;82.90
44461;DHT22;30162;53.642;10.640;2022-12-15T04:20:18;-4.10;82.00
44461;DHT22;30162;53.642;10.640;2022-12-15T04:22:46;-3.90;81.90
44461;DHT22;30162;53.642;10.640;2022-12-15T04:25:14;-3.80;81.40
44461;DHT22;30162;53.642;10.640;2022-12-15T04:27:58;-3.80;80.80
44461;DHT22;30162;53.642;10.640;2022-12-15T04:30:48;-4.00;81.30
44461;DHT22;30162;53.642;10.640;2022-12-15T04:33:33;-4.20;81.90
44461;DHT22;30162;53.642;10.640;2022-12-15T04:36:17;-4.10;82.30
44461;DHT22;30162;53.642;10.640;2022-12-15T04:39:03;-4.20;81.80
44461;DHT22;30162;53.642;10.640;2022-12-15T04:41:48;-4.10;82.00
44461;DHT22;30162;53.642;10.640;2022-12-15T04:44:32;-4.20;81.90
44461;DHT22;30162;53.642;10.640;2022-12-15T04:47:16;-4.00;82.40
44461;DHT22;30162;53.642;10.640;2022-12-15T04:50:00;-4.20;81.70
44461;DHT22;30162;53.642;10.640;2022-12-15T04:52:44;-4.20;82.60
44461;DHT22;30162;53.642;10.640;2022-12-15T04:55:28;-4.20;83.00
44461;DHT22;30162;53.642;10.640;2022-12-15T04:58:12;-4.20;82.90
44461;DHT22;30162;53.642;10.640;2022-12-15T05:00:57;-3.90;82.30
44461;DHT22;30162;53.642;10.640;2022-12-15T05:06:11;-3.80;81.30
44461;DHT22;30162;53.642;10.640;2022-12-15T05:08:56;-3.80;80.90
44461;DHT22;30162;53.642;10.640;2022-12-15T05:11:40;-3.70;81.10
44461;DHT22;30162;53.642;10.640;2022-12-15T05:14:24;-3.70;81.10
44461;DHT22;30162;53.642;10.640;2022-12-15T05:17:08;-4.00;81.60
44461;DHT22;30162;53.642;10.640;2022-12-15T05:19:51;-4.00;81.80
44461;DHT22;30162;53.642;10.640;2022-12-15T05:22:36;-3.90;81.70
44461;DHT22;30162;53.642;10.640;2022-12-15T05:25:20;-4.10;81.80
44461;DHT22;30162;53.642;10.640;2022-12-15T05:28:07;-4.20;82.40
44461;DHT22;30162;53.642;10.640;2022-12-15T05:30:51;-3.90;82.30
44461;DHT22;30162;53.642;10.640;2022-12-15T05:33:35;-3.90;81.60
44461;DHT22;30162;53.642;10.640;2022-12-15T05:36:00;-4.00;81.50
44461;DHT22;30162;53.642;10.640;2022-12-15T05:38:26;-4.20;81.80
44461;DHT22;30162;53.642;10.640;2022-12-15T05:40:51;-3.90;82.00
44461;DHT22;30162;53.642;10.640;2022-12-15T05:43:17;-3.90;81.40
44461;DHT22;30162;53.642;10.640;2022-12-15T05:45:42;-4.00;80.60
44461;DHT22;30162;53.642;10.640;2022-12-15T05:48:08;-4.20;81.10
44461;DHT22;30162;53.642;10.640;2022-12-15T05:50:33;-4.10;81.50
44461;DHT22;30162;53.642;10.640;2022-12-15T05:52:59;-4.00;81.20
44461;DHT22;30162;53.642;10.640;2022-12-15T05:55:25;-4.10;81.90
44461;DHT22;30162;53.642;10.640;2022-12-15T05:57:54;-4.20;81.70
44461;DHT22;30162;53.642;10.640;2022-12-15T06:00:20;-4.00;82.00
44461;DHT22;30162;53.642;10.640;2022-12-15T06:02:46;-4.00;81.20
44461;DHT22;30162;53.642;10.640;2022-12-15T06:05:11;-4.20;80.90
44461;DHT22;30162;53.642;10.640;2022-12-15T06:07:37;-4.00;81.70
44461;DHT22;30162;53.642;10.640;2022-12-15T06:10:03;-4.00;80.50
44461;DHT22;30162;53.642;10.640;2022-12-15T06:12:29;-4.10;81.00
44461;DHT22;30162;53.642;10.640;2022-12-15T06:14:54;-4.40;81.30
44461;DHT22;30162;53.642;10.640;2022-12-15T06:17:20;-4.50;81.90
44461;DHT22;30162;53.642;10.640;2022-12-15T06:19:45;-4.50;82.20
44461;DHT22;30162;53.642;10.640;2022-12-15T06:22:11;-4.50;81.80
44461;DHT22;30162;53.642;10.640;2022-12-15T06:24:37;-4.60;82.70
44461;DHT22;30162;53.642;10.640;2022-12-15T06:27:02;-4.40;82.90
44461;DHT22;30162;53.642;10.640;2022-12-15T06:29:28;-4.30;82.10
44461;DHT22;30162;53.642;10.640;2022-12-15T06:31:53;-4.40;81.90
44461;DHT22;30162;53.642;10.640;2022-12-15T06:34:19;-4.30;82.70
44461;DHT22;30162;53.642;10.640;2022-12-15T06:36:45;-4.30;81.80
44461;DHT22;30162;53.642;10.640;2022-12-15T06:39:15;-4.20;82.30
44461;DHT22;30162;53.642;10.640;2022-12-15T06:41:41;-4.10;81.30
44461;DHT22;30162;53.642;10.640;2022-12-15T06:44:09;-4.10;81.40
44461;DHT22;30162;53.642;10.640;2022-12-15T06:46:37;-4.10;81.80
44461;DHT22;30162;53.642;10.640;2022-12-15T06:49:02;-4.00;81.90
44461;DHT22;30162;53.642;10.640;2022-12-15T06:51:28;-4.10;81.10
44461;DHT22;30162;53.642;10.640;2022-12-15T06:53:54;-4.00;80.80
44461;DHT22;30162;53.642;10.640;2022-12-15T06:56:32;-3.80;81.30
44461;DHT22;30162;53.642;10.640;2022-12-15T06:58:58;-4.10;81.20
44461;DHT22;30162;53.642;10.640;2022-12-15T07:01:24;-4.10;82.00
44461;DHT22;30162;53.642;10.640;2022-12-15T07:03:51;-4.10;81.60
44461;DHT22;30162;53.642;10.640;2022-12-15T07:06:17;-4.20;81.50
44461;DHT22;30162;53.642;10.640;2022-12-15T07:08:43;-4.30;81.70
44461;DHT22;30162;53.642;10.640;2022-12-15T07:11:12;-4.30;82.20
44461;DHT22;30162;53.642;10.640;2022-12-15T07:13:39;-4.30;82.30
44461;DHT22;30162;53.642;10.640;2022-12-15T07:16:06;-4.50;82.10
44461;DHT22;30162;53.642;10.640;2022-12-15T07:18:32;-4.50;82.00
44461;DHT22;30162;53.642;10.640;2022-12-15T07:21:02;-4.40;82.70
44461;DHT22;30162;53.642;10.640;2022-12-15T07:23:29;-4.50;82.40
44461;DHT22;30162;53.642;10.640;2022-12-15T07:25:54;-4.30;82.50
44461;DHT22;30162;53.642;10.640;2022-12-15T07:28:20;-4.20;81.40
44461;DHT22;30162;53.642;10.640;2022-12-15T07:30:46;-4.30;81.10
44461;DHT22;30162;53.642;10.640;2022-12-15T07:33:12;-4.20;81.50
44461;DHT22;30162;53.642;10.640;2022-12-15T07:35:38;-4.30;81.70
44461;DHT22;30162;53.642;10.640;2022-12-15T07:38:07;-4.40;81.40
44461;DHT22;30162;53.642;10.640;2022-12-15T07:40:33;-4.30;81.30
44461;DHT22;30162;53.642;10.640;2022-12-15T07:42:59;-4.30;81.90
44461;DHT22;30162;53.642;10.640;2022-12-15T07:45:25;-4.40;81.70
44461;DHT22;30162;53.642;10.640;2022-12-15T07:47:50;-4.50;81.90
44461;DHT22;30162;53.642;10.640;2022-12-15T07:50:17;-4.60;82.40
44461;DHT22;30162;53.642;10.640;2022-12-15T07:52:44;-4.60;82.90
44461;DHT22;30162;53.642;10.640;2022-12-15T07:55:10;-4.60;83.40
44461;DHT22;30162;53.642;10.640;2022-12-15T07:57:35;-4.50;83.20
44461;DHT22;30162;53.642;10.640;2022-12-15T08:00:01;-4.50;83.50
44461;DHT22;30162;53.642;10.640;2022-12-15T08:02:28;-4.30;83.60
44461;DHT22;30162;53.642;10.640;2022-12-15T08:04:54;-4.40;83.90
44461;DHT22;30162;53.642;10.640;2022-12-15T08:07:19;-4.30;83.70
44461;DHT22;30162;53.642;10.640;2022-12-15T08:09:46;-4.10;83.80
44461;DHT22;30162;53.642;10.640;2022-12-15T08:12:12;-4.10;84.10
44461;DHT22;30162;53.642;10.640;2022-12-15T08:14:38;-4.10;83.70
44461;DHT22;30162;53.642;10.640;2022-12-15T08:17:04;-4.00;84.20
44461;DHT22;30162;53.642;10.640;2022-12-15T08:19:29;-3.90;83.80
44461;DHT22;30162;53.642;10.640;2022-12-15T08:21:55;-3.90;83.60
44461;DHT22;30162;53.642;10.640;2022-12-15T08:24:20;-3.80;83.50
44461;DHT22;30162;53.642;10.640;2022-12-15T08:26:46;-3.90;83.50
44461;DHT22;30162;53.642;10.640;2022-12-15T08:29:13;-3.80;83.70
44461;DHT22;30162;53.642;10.640;2022-12-15T08:31:39;-3.60;84.10
44461;DHT22;30162;53.642;10.640;2022-12-15T08:34:05;-3.50;83.20
44461;DHT22;30162;53.642;10.640;2022-12-15T08:36:31;-3.60;83.70
44461;DHT22;30162;53.642;10.640;2022-12-15T08:38:59;-3.40;83.90
44461;DHT22;30162;53.642;10.640;2022-12-15T08:41:31;-3.30;83.30
44461;DHT22;30162;53.642;10.640;2022-12-15T08:43:59;-3.10;83.20
44461;DHT22;30162;53.642;10.640;2022-12-15T08:46:30;-3.20;83.60
44461;DHT22;30162;53.642;10.640;2022-12-15T08:48:56;-3.10;84.20
44461;DHT22;30162;53.642;10.640;2022-12-15T08:51:23;-3.00;84.40
44461;DHT22;30162;53.642;10.640;2022-12-15T08:53:49;-2.80;84.50
44461;DHT22;30162;53.642;10.640;2022-12-15T08:56:20;-2.70;84.70
44461;DHT22;30162;53.642;10.640;2022-12-15T08:58:46;-2.50;85.20
44461;DHT22;30162;53.642;10.640;2022-12-15T09:01:15;-2.30;85.10
44461;DHT22;30162;53.642;10.640;2022-12-15T09:03:44;-2.00;85.30
44461;DHT22;30162;53.642;10.640;2022-12-15T09:06:30;-1.60;85.10
44461;DHT22;30162;53.642;10.640;2022-12-15T09:08:59;-1.60;84.10
44461;DHT22;30162;53.642;10.640;2022-12-15T09:11:26;-1.50;85.30
44461;DHT22;30162;53.642;10.640;2022-12-15T09:13:52;-1.20;85.70
44461;DHT22;30162;53.642;10.640;2022-12-15T09:16:19;-1.10;86.00
44461;DHT22;30162;53.642;10.640;2022-12-15T09:18:47;-0.90;85.70
44461;DHT22;30162;53.642;10.640;2022-12-15T09:21:13;-0.90;85.10
44461;DHT22;30162;53.642;10.640;2022-12-15T09:23:39;-0.90;86.10
44461;DHT22;30162;53.642;10.640;2022-12-15T09:28:31;-0.50;85.10
44461;DHT22;30162;53.642;10.640;2022-12-15T09:31:12;-0.60;84.70
44461;DHT22;30162;53.642;10.640;2022-12-15T09:33:39;-0.70;85.50
44461;DHT22;30162;53.642;10.640;2022-12-15T09:36:05;-0.70;86.10
44461;DHT22;30162;53.642;10.640;2022-12-15T09:38:36;-0.70;87.10
44461;DHT22;30162;53.642;10.640;2022-12-15T09:41:47;-0.50;87.10
44461;DHT22;30162;53.642;10.640;2022-12-15T09:44:03;-0.40;86.70
44461;DHT22;30162;53.642;10.640;2022-12-15T09:49:46;-0.20;87.10
44461;DHT22;30162;53.642;10.640;2022-12-15T09:52:30;-0.30;87.60
44461;DHT22;30162;53.642;10.640;2022-12-15T09:54:56;-0.40;88.40
44461;DHT22;30162;53.642;10.640;2022-12-15T09:57:39;-0.10;88.70
44461;DHT22;30162;53.642;10.640;2022-12-15T10:07:50;0.90;87.80
44461;DHT22;30162;53.642;10.640;2022-12-15T10:10:36;1.10;87.30
44461;DHT22;30162;53.642;10.640;2022-12-15T10:13:16;1.30;87.00
44461;DHT22;30162;53.642;10.640;2022-12-15T10:19:02;1.00;87.00
44461;DHT22;30162;53.642;10.640;2022-12-15T10:21:30;1.10;87.60
44461;DHT22;30162;53.642;10.640;2022-12-15T10:24:12;1.30;87.50
44461;DHT22;30162;53.642;10.640;2022-12-15T10:26:40;1.30;88.40
44461;DHT22;30162;53.642;10.640;2022-12-15T10:29:32;1.30;88.90
44461;DHT22;30162;53.642;10.640;2022-12-15T10:32:07;1.60;88.60
44461;DHT22;30162;53.642;10.640;2022-12-15T10:34:36;1.50;88.00
44461;DHT22;30162;53.642;10.640;2022-12-15T10:39:40;1.80;87.90
44461;DHT22;30162;53.642;10.640;2022-12-15T10:42:23;2.00;88.20
44461;DHT22;30162;53.642;10.640;2022-12-15T10:44:51;2.30;87.70
44461;DHT22;30162;53.642;10.640;2022-12-15T10:47:25;2.40;87.20
44461;DHT22;30162;53.642;10.640;2022-12-15T10:49:52;2.10;87.60
44461;DHT22;30162;53.642;10.640;2022-12-15T10:52:22;2.10;88.30
44461;DHT22;30162;53.642;10.640;2022-12-15T10:54:50;2.00;88.70
44461;DHT22;30162;53.642;10.640;2022-12-15T10:59:44;1.50;90.20
44461;DHT22;30162;53.642;10.640;2022-12-15T11:02:28;1.60;90.30
44461;DHT22;30162;53.642;10.640;2022-12-15T11:05:16;1.70;90.20
44461;DHT22;30162;53.642;10.640;2022-12-15T11:08:11;1.70;90.20
44461;DHT22;30162;53.642;10.640;2022-12-15T11:10:51;1.80;90.40
44461;DHT22;30162;53.642;10.640;2022-12-15T11:13:36;1.70;90.40
44461;DHT22;30162;53.642;10.640;2022-12-15T11:16:13;1.90;90.30
44461;DHT22;30162;53.642;10.640;2022-12-15T11:21:19;2.00;90.50
44461;DHT22;30162;53.642;10.640;2022-12-15T11:24:12;2.10;90.80
44461;DHT22;30162;53.642;10.640;2022-12-15T11:26:45;2.30;90.60
44461;DHT22;30162;53.642;10.640;2022-12-15T11:29:31;2.20;90.50
44461;DHT22;30162;53.642;10.640;2022-12-15T11:32:03;2.30;90.70
44461;DHT22;30162;53.642;10.640;2022-12-15T11:34:36;2.30;90.90
44461;DHT22;30162;53.642;10.640;2022-12-15T11:37:35;2.50;90.80
44461;DHT22;30162;53.642;10.640;2022-12-15T11:40:26;2.60;90.60
44461;DHT22;30162;53.642;10.640;2022-12-15T11:45:49;2.70;90.80
44461;DHT22;30162;53.642;10.640;2022-12-15T11:48:21;2.70;90.80
44461;DHT22;30162;53.642;10.640;2022-12-15T11:50:52;2.70;90.90
44461;DHT22;30162;53.642;10.640;2022-12-15T11:58:38;2.70;90.80
44461;DHT22;30162;53.642;10.640;2022-12-15T12:09:45;3.50;90.90
44461;DHT22;30162;53.642;10.640;2022-12-15T12:12:24;3.40;90.70
44461;DHT22;30162;53.642;10.640;2022-12-15T12:17:44;3.70;90.20
44461;DHT22;30162;53.642;10.640;2022-12-15T12:20:17;3.60;90.00
44461;DHT22;30162;53.642;10.640;2022-12-15T12:23:14;3.60;90.00
44461;DHT22;30162;53.642;10.640;2022-12-15T12:26:01;3.60;90.20
44461;DHT22;30162;53.642;10.640;2022-12-15T12:31:25;3.60;90.40
44461;DHT22;30162;53.642;10.640;2022-12-15T12:33:54;3.40;90.30
44461;DHT22;30162;53.642;10.640;2022-12-15T12:36:23;3.60;90.40
44461;DHT22;30162;53.642;10.640;2022-12-15T12:38:51;3.40;90.40
44461;DHT22;30162;53.642;10.640;2022-12-15T12:41:43;3.50;90.30
44461;DHT22;30162;53.642;10.640;2022-12-15T12:44:35;3.50;90.30
44461;DHT22;30162;53.642;10.640;2022-12-15T12:49:44;3.40;90.70
44461;DHT22;30162;53.642;10.640;2022-12-15T12:52:24;3.40;90.30
44461;DHT22;30162;53.642;10.640;2022-12-15T12:58:01;3.30;90.60
44461;DHT22;30162;53.642;10.640;2022-12-15T13:00:31;3.50;90.60
44461;DHT22;30162;53.642;10.640;2022-12-15T13:03:18;3.50;90.60
44461;DHT22;30162;53.642;10.640;2022-12-15T13:05:46;3.60;90.50
44461;DHT22;30162;53.642;10.640;2022-12-15T13:10:40;3.40;90.90
44461;DHT22;30162;53.642;10.640;2022-12-15T13:16:20;3.50;90.80
44461;DHT22;30162;53.642;10.640;2022-12-15T13:19:02;3.50;90.70
44461;DHT22;30162;53.642;10.640;2022-12-15T13:26:47;3.50;91.00
44461;DHT22;30162;53.642;10.640;2022-12-15T13:29:14;3.60;90.90
44461;DHT22;30162;53.642;10.640;2022-12-15T13:31:47;3.60;90.70
44461;DHT22;30162;53.642;10.640;2022-12-15T13:34:16;3.50;90.70
44461;DHT22;30162;53.642;10.640;2022-12-15T13:36:44;3.50;90.90
44461;DHT22;30162;53.642;10.640;2022-12-15T13:41:42;3.50;90.60
44461;DHT22;30162;53.642;10.640;2022-12-15T13:52:13;3.60;90.80
44461;DHT22;30162;53.642;10.640;2022-12-15T13:57:53;3.60;90.70
44461;DHT22;30162;53.642;10.640;2022-12-15T14:00:19;3.60;90.50
44461;DHT22;30162;53.642;10.640;2022-12-15T14:02:45;3.60;90.60
44461;DHT22;30162;53.642;10.640;2022-12-15T14:05:12;3.30;90.30
44461;DHT22;30162;53.642;10.640;2022-12-15T14:12:56;3.40;90.60
44461;DHT22;30162;53.642;10.640;2022-12-15T14:15:32;3.60;90.80
44461;DHT22;30162;53.642;10.640;2022-12-15T14:18:00;3.60;90.60
44461;DHT22;30162;53.642;10.640;2022-12-15T14:20:36;3.70;90.70
44461;DHT22;30162;53.642;10.640;2022-12-15T14:23:16;3.70;90.70
44461;DHT22;30162;53.642;10.640;2022-12-15T14:25:54;3.70;90.80
44461;DHT22;30162;53.642;10.640;2022-12-15T14:28:29;3.60;90.60
44461;DHT22;30162;53.642;10.640;2022-12-15T14:31:04;3.60;90.80
44461;DHT22;30162;53.642;10.640;2022-12-15T14:33:34;3.60;91.10
44461;DHT22;30162;53.642;10.640;2022-12-15T14:36:04;3.60;90.80
44461;DHT22;30162;53.642;10.640;2022-12-15T14:38:42;3.70;91.00
44461;DHT22;30162;53.642;10.640;2022-12-15T14:41:19;3.70;90.90
44461;DHT22;30162;53.642;10.640;2022-12-15T14:43:47;3.70;90.80
44461;DHT22;30162;53.642;10.640;2022-12-15T14:46:15;3.70;90.60
44461;DHT22;30162;53.642;10.640;2022-12-15T14:51:22;3.50;91.00
44461;DHT22;30162;53.642;10.640;2022-12-15T14:53:50;3.40;91.00
44461;DHT22;30162;53.642;10.640;2022-12-15T14:56:22;3.40;91.20
44461;DHT22;30162;53.642;10.640;2022-12-15T14:59:02;3.30;91.20
44461;DHT22;30162;53.642;10.640;2022-12-15T15:01:29;3.40;91.40
44461;DHT22;30162;53.642;10.640;2022-12-15T15:04:01;3.40;91.30
44461;DHT22;30162;53.642;10.640;2022-12-15T15:06:37;3.40;91.40
44461;DHT22;30162;53.642;10.640;2022-12-15T15:09:20;3.30;91.40
44461;DHT22;30162;53.642;10.640;2022-12-15T15:11:48;3.30;91.40
44461;DHT22;30162;53.642;10.640;2022-12-15T15:14:23;3.50;91.20
44461;DHT22;30162;53.642;10.640;2022-12-15T15:17:05;3.60;91.00
44461;DHT22;30162;53.642;10.640;2022-12-15T15:19:35;3.40;90.90
44461;DHT22;30162;53.642;10.640;2022-12-15T15:22:01;3.40;91.20
44461;DHT22;30162;53.642;10.640;2022-12-15T15:24:34;3.40;91.20
44461;DHT22;30162;53.642;10.640;2022-12-15T15:27:24;3.40;91.20
44461;DHT22;30162;53.642;10.640;2022-12-15T15:29:50;3.30;91.00
44461;DHT22;30162;53.642;10.640;2022-12-15T15:32:18;3.20;91.20
44461;DHT22;30162;53.642;10.640;2022-12-15T15:34:44;3.30;91.20
44461;DHT22;30162;53.642;10.640;2022-12-15T15:37:23;3.20;91.10
44461;DHT22;30162;53.642;10.640;2022-12-15T15:39:53;3.10;91.10
44461;DHT22;30162;53.642;10.640;2022-12-15T15:42:18;3.10;91.20
44461;DHT22;30162;53.642;10.640;2022-12-15T15:44:44;3.20;91.10
44461;DHT22;30162;53.642;10.640;2022-12-15T15:47:22;2.90;91.00
44461;DHT22;30162;53.642;10.640;2022-12-15T15:49:48;2.80;91.10
44461;DHT22;30162;53.642;10.640;2022-12-15T15:52:14;2.70;91.30
44461;DHT22;30162;53.642;10.640;2022-12-15T15:54:40;2.70;91.30
44461;DHT22;30162;53.642;10.640;2022-12-15T15:57:12;2.70;91.40
44461;DHT22;30162;53.642;10.640;2022-12-15T15:59:38;2.70;91.40
44461;DHT22;30162;53.642;10.640;2022-12-15T16:02:11;2.60;91.40
44461;DHT22;30162;53.642;10.640;2022-12-15T16:04:38;2.60;91.60
44461;DHT22;30162;53.642;10.640;2022-12-15T16:07:15;2.80;91.50
44461;DHT22;30162;53.642;10.640;2022-12-15T16:09:42;2.70;91.20
44461;DHT22;30162;53.642;10.640;2022-12-15T16:14:50;2.70;91.20
44461;DHT22;30162;53.642;10.640;2022-12-15T16:17:16;2.60;91.40
44461;DHT22;30162;53.642;10.640;2022-12-15T16:19:42;2.80;91.50
44461;DHT22;30162;53.642;10.640;2022-12-15T16:22:14;2.80;91.30
44461;DHT22;30162;53.642;10.640;2022-12-15T16:24:41;2.80;91.20
44461;DHT22;30162;53.642;10.640;2022-12-15T16:27:08;3.00;91.40
44461;DHT22;30162;53.642;10.640;2022-12-15T16:29:35;2.80;91.30
44461;DHT22;30162;53.642;10.640;2022-12-15T16:32:01;2.80;91.30
44461;DHT22;30162;53.642;10.640;2022-12-15T16:34:26;2.70;91.60
44461;DHT22;30162;53.642;10.640;2022-12-15T16:36:52;2.70;91.60
44461;DHT22;30162;53.642;10.640;2022-12-15T16:39:30;2.90;91.70
44461;DHT22;30162;53.642;10.640;2022-12-15T16:41:56;3.00;91.60
44461;DHT22;30162;53.642;10.640;2022-12-15T16:44:24;2.90;91.20
44461;DHT22;30162;53.642;10.640;2022-12-15T16:46:50;3.00;91.50
44461;DHT22;30162;53.642;10.640;2022-12-15T16:49:15;2.90;91.50
44461;DHT22;30162;53.642;10.640;2022-12-15T16:51:43;3.00;91.40
44461;DHT22;30162;53.642;10.640;2022-12-15T16:54:19;2.90;91.50
44461;DHT22;30162;53.642;10.640;2022-12-15T16:56:46;2.90;91.60
44461;DHT22;30162;53.642;10.640;2022-12-15T16:59:16;3.00;91.80
44461;DHT22;30162;53.642;10.640;2022-12-15T17:01:42;3.10;91.50
44461;DHT22;30162;53.642;10.640;2022-12-15T17:04:07;3.00;91.40
44461;DHT22;30162;53.642;10.640;2022-12-15T17:06:33;3.10;91.40
44461;DHT22;30162;53.642;10.640;2022-12-15T17:08:59;3.00;91.40
44461;DHT22;30162;53.642;10.640;2022-12-15T17:11:27;3.00;91.50
44461;DHT22;30162;53.642;10.640;2022-12-15T17:13:55;3.00;91.60
44461;DHT22;30162;53.642;10.640;2022-12-15T17:16:23;3.00;91.70
44461;DHT22;30162;53.642;10.640;2022-12-15T17:18:49;3.00;91.70
44461;DHT22;30162;53.642;10.640;2022-12-15T17:21:15;3.10;91.50
44461;DHT22;30162;53.642;10.640;2022-12-15T17:23:51;3.20;91.50
44461;DHT22;30162;53.642;10.640;2022-12-15T17:26:28;3.20;91.60
44461;DHT22;30162;53.642;10.640;2022-12-15T17:28:55;3.20;91.40
44461;DHT22;30162;53.642;10.640;2022-12-15T17:31:23;3.20;91.60
44461;DHT22;30162;53.642;10.640;2022-12-15T17:33:49;3.20;91.40
44461;DHT22;30162;53.642;10.640;2022-12-15T17:36:19;3.20;91.50
44461;DHT22;30162;53.642;10.640;2022-12-15T17:38:50;3.10;91.50
44461;DHT22;30162;53.642;10.640;2022-12-15T17:41:16;3.20;91.60